Time;durP1;ratioP1;P1;durP2;ratioP2;P2;SDS_P1;SDS_P2;PMS_P1;PMS_P2;Temp;Humidity;BMP_temperature;BMP_pressure;BME280_temperature;BME280_humidity;BME280_pressure;Samples;Min_cycle;Max_cycle;Signal;HPM_P1;HPM_P2
2021/07/07 00:00:50;;;;;;;4.10;2.50;;;;;;;15.85;100.00;95463.25;5047483;28;20041;-76
2021/07/07 00:03:18;;;;;;;3.35;2.33;;;;;;;15.81;100.00;95467.59;5048533;28;20363;-76
2021/07/07 00:05:44;;;;;;;3.95;2.70;;;;;;;15.82;100.00;95472.59;5049975;28;20048;-76
2021/07/07 00:08:10;;;;;;;3.45;2.60;;;;;;;15.83;100.00;95470.72;5014121;28;1079115;-76
2021/07/07 00:10:36;;;;;;;4.88;3.03;;;;;;;15.83;100.00;95476.03;5049167;28;20037;-76
2021/07/07 00:13:03;;;;;;;4.43;2.60;;;;;;;15.83;100.00;95471.53;5050356;28;20033;-76
2021/07/07 00:15:33;;;;;;;3.10;2.30;;;;;;;15.83;100.00;95468.06;5049349;28;20033;-76
2021/07/07 00:18:09;;;;;;;8.38;2.72;;;;;;;15.87;100.00;95461.06;5051186;28;20045;-76
2021/07/07 00:20:42;;;;;;;3.08;2.47;;;;;;;15.88;100.00;95436.13;5042348;28;20041;-76
2021/07/07 00:23:08;;;;;;;3.70;2.60;;;;;;;15.90;100.00;95418.00;5046248;28;20061;-76
2021/07/07 00:25:34;;;;;;;4.10;2.70;;;;;;;15.91;100.00;95408.97;5052554;28;20068;-76
2021/07/07 00:28:00;;;;;;;4.50;3.00;;;;;;;15.84;100.00;95406.72;5064709;28;20150;-77
2021/07/07 00:30:27;;;;;;;5.03;3.35;;;;;;;15.83;100.00;95407.03;5050039;28;20037;-77
2021/07/07 00:32:53;;;;;;;4.13;2.72;;;;;;;15.85;100.00;95442.03;5054752;28;20676;-76
2021/07/07 00:35:19;;;;;;;4.45;2.60;;;;;;;15.88;100.00;95447.50;5051275;28;20467;-76
2021/07/07 00:37:44;;;;;;;3.75;2.70;;;;;;;15.85;100.00;95460.59;5052095;28;20037;-76
2021/07/07 00:40:10;;;;;;;3.72;2.75;;;;;;;15.84;100.00;95469.66;5070241;28;20430;-76
2021/07/07 00:42:36;;;;;;;4.00;3.00;;;;;;;15.83;100.00;95470.72;5050149;28;21469;-76
2021/07/07 00:45:02;;;;;;;4.28;2.65;;;;;;;15.82;100.00;95463.88;5049504;28;20468;-76
2021/07/07 00:47:27;;;;;;;3.72;2.55;;;;;;;15.81;100.00;95473.69;5049381;28;20044;-76
2021/07/07 00:49:53;;;;;;;5.10;2.60;;;;;;;15.82;100.00;95469.19;5049336;28;20041;-76
2021/07/07 00:52:19;;;;;;;6.65;2.85;;;;;;;15.85;100.00;95466.69;5050085;28;20402;-76
2021/07/07 00:54:45;;;;;;;5.05;2.63;;;;;;;15.83;100.00;95460.09;5047140;28;20045;-76
2021/07/07 00:57:13;;;;;;;3.55;2.80;;;;;;;15.87;100.00;95463.72;5049104;28;20041;-76
2021/07/07 00:59:41;;;;;;;3.83;2.70;;;;;;;15.84;100.00;95456.38;5046884;28;20041;-76
2021/07/07 01:02:09;;;;;;;5.47;3.10;;;;;;;15.81;100.00;95457.00;5050669;28;20131;-76
2021/07/07 01:04:34;;;;;;;3.88;2.70;;;;;;;15.79;100.00;95448.53;5051276;28;20048;-76
2021/07/07 01:07:00;;;;;;;4.57;2.95;;;;;;;15.79;100.00;95432.63;5048038;28;20045;-76
2021/07/07 01:09:25;;;;;;;4.32;3.05;;;;;;;15.85;100.00;95434.06;5048140;28;20067;-76
2021/07/07 01:11:51;;;;;;;4.22;2.97;;;;;;;15.84;100.00;95438.56;5048564;28;20053;-76
2021/07/07 01:14:16;;;;;;;4.55;2.65;;;;;;;15.86;100.00;95438.28;5054945;28;20041;-75
2021/07/07 01:16:43;;;;;;;4.20;2.83;;;;;;;15.77;100.00;95431.03;5051712;28;20044;-76
2021/07/07 01:19:11;;;;;;;6.90;2.60;;;;;;;15.78;100.00;95421.19;5053671;28;20037;-76
2021/07/07 01:21:47;;;;;;;7.70;2.80;;;;;;;15.80;100.00;95423.56;5052574;28;20048;-76
2021/07/07 01:24:15;;;;;;;2.55;2.00;;;;;;;15.77;100.00;95428.38;5046645;28;20403;-76
2021/07/07 01:26:41;;;;;;;3.95;2.40;;;;;;;15.74;100.00;95431.63;5051756;28;20045;-76
2021/07/07 01:29:08;;;;;;;3.10;2.20;;;;;;;15.77;100.00;95433.69;5053090;28;20043;-76
2021/07/07 01:31:34;;;;;;;5.05;2.13;;;;;;;15.75;100.00;95429.78;5045239;28;20045;-76
2021/07/07 01:33:59;;;;;;;5.32;2.20;;;;;;;15.87;100.00;95439.84;5051169;28;20395;-76
2021/07/07 01:36:25;;;;;;;2.65;2.03;;;;;;;15.83;100.00;95460.09;5052955;28;20048;-76
2021/07/07 01:38:50;;;;;;;3.92;2.30;;;;;;;15.80;100.00;95456.19;5073649;28;20134;-76
2021/07/07 01:41:16;;;;;;;3.92;2.40;;;;;;;15.81;100.00;95457.00;5047517;28;20052;-76
2021/07/07 01:43:42;;;;;;;2.80;2.05;;;;;;;15.74;100.00;95444.88;5057984;28;20044;-76
2021/07/07 01:46:07;;;;;;;3.65;2.20;;;;;;;15.73;100.00;95419.47;5052395;28;20052;-76
2021/07/07 01:48:33;;;;;;;2.80;2.22;;;;;;;15.73;100.00;95423.97;5053769;28;20045;-76
2021/07/07 01:50:58;;;;;;;2.83;2.20;;;;;;;15.70;100.00;95420.06;5051705;28;20475;-76
2021/07/07 01:53:24;;;;;;;5.78;2.38;;;;;;;15.72;100.00;95417.13;5057566;28;20067;-76
2021/07/07 01:55:50;;;;;;;6.68;2.50;;;;;;;15.71;100.00;95421.63;5053803;28;20033;-76
2021/07/07 01:58:16;;;;;;;4.95;2.60;;;;;;;15.74;100.00;95426.31;5051208;28;20758;-76
2021/07/07 02:00:41;;;;;;;3.92;2.40;;;;;;;15.72;100.00;95422.44;5053621;28;20040;-76
2021/07/07 02:03:07;;;;;;;3.47;2.20;;;;;;;15.70;100.00;95425.38;5051570;28;20033;-75
2021/07/07 02:05:35;;;;;;;3.88;2.47;;;;;;;15.74;100.00;95431.63;5051897;28;20069;-76
2021/07/07 02:08:05;;;;;;;3.58;2.35;;;;;;;15.75;100.00;95443.81;5051888;28;20033;-76
2021/07/07 02:10:31;;;;;;;4.70;2.50;;;;;;;15.79;100.00;95445.88;5056802;28;20138;-76
2021/07/07 02:12:57;;;;;;;5.43;2.65;;;;;;;15.83;100.00;95444.19;5052451;28;20041;-76
2021/07/07 02:15:25;;;;;;;3.63;2.50;;;;;;;15.82;100.00;95453.25;5066731;28;20041;-76
2021/07/07 02:17:53;;;;;;;6.53;2.58;;;;;;;15.81;100.00;95451.69;5050401;28;20033;-76
2021/07/07 02:20:19;;;;;;;3.65;2.63;;;;;;;15.83;100.00;95449.50;5070818;28;20037;-76
2021/07/07 02:22:46;;;;;;;6.75;2.28;;;;;;;15.82;100.00;95448.72;5054728;28;20405;-76
2021/07/07 02:25:15;;;;;;;4.28;2.30;;;;;;;15.80;100.00;95456.19;5054508;28;20040;-76
2021/07/07 02:27:40;;;;;;;4.25;2.40;;;;;;;15.83;100.00;95438.88;5050031;28;20044;-76
2021/07/07 02:30:10;;;;;;;3.33;2.53;;;;;;;15.81;100.00;95435.75;5056920;28;20037;-76
2021/07/07 02:32:35;;;;;;;5.57;2.58;;;;;;;15.85;100.00;95437.50;5048328;28;20041;-76
2021/07/07 02:35:03;;;;;;;3.20;2.53;;;;;;;15.84;100.00;95435.16;5042489;28;20048;-76
2021/07/07 02:37:29;;;;;;;5.57;2.80;;;;;;;15.87;100.00;95434.53;5049303;28;20052;-75
2021/07/07 02:39:55;;;;;;;3.97;2.75;;;;;;;15.91;100.00;95433.63;5050323;28;20037;-76
2021/07/07 02:42:20;;;;;;;4.05;2.92;;;;;;;15.88;100.00;95433.47;5050611;28;20036;-76
2021/07/07 02:44:46;;;;;;;6.00;2.70;;;;;;;15.91;100.00;95430.19;5050966;28;20048;-76
2021/07/07 02:47:11;;;;;;;3.90;2.60;;;;;;;15.86;100.00;95427.66;5050794;28;20037;-76
2021/07/07 02:49:37;;;;;;;4.00;2.53;;;;;;;15.90;100.00;95439.22;5050362;28;20075;-76
2021/07/07 02:52:04;;;;;;;3.55;2.55;;;;;;;15.88;100.00;95467.97;5067079;28;20094;-76
2021/07/07 02:54:29;;;;;;;4.18;2.30;;;;;;;15.84;100.00;95473.06;5042748;28;20045;-76
2021/07/07 02:56:55;;;;;;;3.40;2.50;;;;;;;15.82;100.00;95479.78;5057918;28;20052;-76
2021/07/07 02:59:20;;;;;;;5.38;2.50;;;;;;;15.82;100.00;95485.09;5050753;28;20029;-76
2021/07/07 03:01:46;;;;;;;3.97;2.70;;;;;;;15.83;100.00;95491.94;5047402;28;20067;-76
2021/07/07 03:04:11;;;;;;;4.10;2.60;;;;;;;15.83;100.00;95491.94;5050321;28;20033;-76
2021/07/07 03:06:37;;;;;;;5.78;3.22;;;;;;;15.82;100.00;95491.19;5066600;28;20098;-76
2021/07/07 03:09:03;;;;;;;6.03;3.30;;;;;;;15.86;100.00;95494.00;5049552;28;20037;-76
2021/07/07 03:11:29;;;;;;;7.53;3.30;;;;;;;15.85;100.00;95492.44;5052169;28;20045;-76
2021/07/07 03:13:54;;;;;;;5.65;3.20;;;;;;;15.89;100.00;95480.16;5049806;28;20071;-75
2021/07/07 03:16:20;;;;;;;8.77;3.15;;;;;;;15.92;100.00;95469.69;5050814;28;20045;-76
2021/07/07 03:18:45;;;;;;;8.95;3.67;;;;;;;15.97;100.00;95454.72;5053232;28;20037;-76
2021/07/07 03:21:11;;;;;;;6.90;3.75;;;;;;;15.96;100.00;95453.16;5050786;28;20414;-76
2021/07/07 03:23:37;;;;;;;5.57;3.13;;;;;;;15.90;100.00;95463.13;5051988;28;20037;-76
2021/07/07 03:26:03;;;;;;;4.68;2.90;;;;;;;15.90;100.00;95465.78;5050353;28;20128;-76
2021/07/07 03:28:28;;;;;;;4.95;3.22;;;;;;;15.90;100.00;95460.47;5049704;28;20275;-76
2021/07/07 03:30:54;;;;;;;9.82;3.75;;;;;;;15.90;100.00;95465.78;5065464;28;20045;-76
2021/07/07 03:33:20;;;;;;;4.80;3.22;;;;;;;15.92;100.00;95474.22;5052860;28;20090;-76
2021/07/07 03:35:47;;;;;;;4.93;3.22;;;;;;;15.89;100.00;95486.22;5050140;28;20049;-76
2021/07/07 03:38:12;;;;;;;6.07;3.40;;;;;;;15.90;100.00;95494.97;5050956;28;20486;-76
2021/07/07 03:40:40;;;;;;;5.03;2.90;;;;;;;15.90;100.00;95492.31;5049681;28;20037;-76
2021/07/07 03:43:06;;;;;;;7.03;3.20;;;;;;;15.86;100.00;95496.66;5058793;28;20106;-75
2021/07/07 03:45:32;;;;;;;6.03;3.08;;;;;;;15.81;100.00;95499.44;5051285;28;20049;-76
2021/07/07 03:47:57;;;;;;;3.90;2.92;;;;;;;15.82;100.00;95491.19;5047390;28;20549;-75
2021/07/07 03:50:24;;;;;;;6.50;3.20;;;;;;;15.85;100.00;95495.88;5045779;28;20231;-76
2021/07/07 03:52:50;;;;;;;5.28;2.90;;;;;;;15.79;100.00;95493.63;5052516;28;20082;-76
2021/07/07 03:55:19;;;;;;;6.65;3.00;;;;;;;15.74;100.00;95508.56;5048532;28;20107;-76
2021/07/07 03:57:45;;;;;;;6.35;3.20;;;;;;;15.76;100.00;95511.72;5044085;28;20037;-76
2021/07/07 04:00:14;;;;;;;5.03;2.97;;;;;;;15.75;100.00;95514.66;5048150;28;20044;-76
2021/07/07 04:02:39;;;;;;;5.47;3.05;;;;;;;15.74;100.00;95511.22;5046911;28;20076;-77
2021/07/07 04:05:07;;;;;;;4.30;3.00;;;;;;;15.71;100.00;95509.16;5052128;28;20048;-77
2021/07/07 04:07:33;;;;;;;5.90;3.13;;;;;;;15.68;100.00;95512.44;5049126;28;20526;-77
2021/07/07 04:09:58;;;;;;;4.80;2.90;;;;;;;15.67;100.00;95521.47;5047738;28;20033;-77
2021/07/07 04:12:24;;;;;;;4.65;3.00;;;;;;;15.70;100.00;95531.50;5047779;28;20055;-77
2021/07/07 04:14:49;;;;;;;3.63;2.65;;;;;;;15.68;100.00;95544.25;5055554;28;20549;-76
2021/07/07 04:17:15;;;;;;;5.53;2.80;;;;;;;15.63;100.00;95552.34;5053075;28;20037;-76
2021/07/07 04:19:40;;;;;;;7.97;2.88;;;;;;;15.61;100.00;95559.81;5045208;28;20041;-76
2021/07/07 04:22:06;;;;;;;6.20;2.80;;;;;;;15.58;100.00;95571.03;5053318;28;20040;-77
2021/07/07 04:24:32;;;;;;;3.97;2.72;;;;;;;15.58;100.00;95576.34;5060183;28;20426;-77
2021/07/07 04:26:57;;;;;;;4.53;2.70;;;;;;;15.63;100.00;95588.69;5051591;28;20041;-77
2021/07/07 04:29:23;;;;;;;5.53;2.85;;;;;;;15.64;100.00;95595.56;5050951;28;20048;-78
2021/07/07 04:31:48;;;;;;;3.70;2.70;;;;;;;15.60;100.00;95595.38;5057631;28;20041;-78
2021/07/07 04:34:14;;;;;;;5.60;3.15;;;;;;;15.66;100.00;95582.78;5055162;28;20048;-77
2021/07/07 04:36:40;;;;;;;5.40;2.95;;;;;;;15.70;100.00;95581.91;5053796;28;20079;-78
2021/07/07 04:39:07;;;;;;;5.18;2.72;;;;;;;15.75;100.00;95576.47;5053650;28;20087;-77
2021/07/07 04:41:33;;;;;;;5.35;2.85;;;;;;;15.74;100.00;95580.19;5048611;28;20057;-77
2021/07/07 04:43:59;;;;;;;4.50;2.78;;;;;;;15.73;100.00;95581.31;5051276;28;20045;-77
2021/07/07 04:46:24;;;;;;;6.68;2.70;;;;;;;15.72;100.00;95571.75;5053980;28;20041;-77
2021/07/07 04:48:50;;;;;;;5.20;2.70;;;;;;;15.71;100.00;95570.19;5050884;28;20200;-77
2021/07/07 04:51:15;;;;;;;6.30;3.45;;;;;;;15.71;100.00;95559.56;5053267;28;20052;-78
2021/07/07 04:53:41;;;;;;;6.05;2.90;;;;;;;15.71;100.00;95564.88;5053347;28;20059;-77
2021/07/07 04:56:06;;;;;;;4.32;2.60;;;;;;;15.75;100.00;95565.09;5052917;28;20075;-77
2021/07/07 04:58:33;;;;;;;9.15;3.40;;;;;;;15.79;100.00;95554.66;5057056;28;20499;-77
2021/07/07 05:00:58;;;;;;;5.32;2.90;;;;;;;15.75;100.00;95549.94;5056399;28;20040;-77
2021/07/07 05:03:24;;;;;;;5.70;2.53;;;;;;;15.76;100.00;95546.19;5054380;28;20068;-77
2021/07/07 05:05:50;;;;;;;6.85;2.90;;;;;;;15.83;100.00;95539.72;5053017;28;20524;-77
2021/07/07 05:08:15;;;;;;;5.78;2.70;;;;;;;15.85;100.00;95543.63;5059114;28;20044;-77
2021/07/07 05:10:41;;;;;;;7.18;3.05;;;;;;;15.91;100.00;95552.25;5052998;28;20116;-77
2021/07/07 05:13:07;;;;;;;6.00;3.05;;;;;;;15.92;100.00;95564.47;5052602;28;20045;-77
2021/07/07 05:15:33;;;;;;;7.43;2.60;;;;;;;15.99;100.00;95562.16;5053192;28;20049;-77
2021/07/07 05:17:59;;;;;;;3.97;2.63;;;;;;;16.02;100.00;95569.50;5058699;28;20041;-77
2021/07/07 05:20:25;;;;;;;3.78;2.65;;;;;;;15.99;100.00;95575.44;5055526;28;20041;-77
2021/07/07 05:22:51;;;;;;;3.78;2.20;;;;;;;16.00;100.00;95581.50;5053563;28;20045;-76
2021/07/07 05:25:18;;;;;;;5.80;2.47;;;;;;;16.02;100.00;95580.13;5048258;28;20068;-76
2021/07/07 05:27:45;;;;;;;3.63;2.75;;;;;;;16.00;100.00;95579.63;5054487;28;20055;-76
2021/07/07 05:30:12;;;;;;;3.20;2.25;;;;;;;15.98;100.00;95579.16;5063075;28;20037;-76
2021/07/07 05:32:38;;;;;;;5.43;2.22;;;;;;;15.98;100.00;95579.16;5053586;28;20417;-76
2021/07/07 05:35:04;;;;;;;5.43;2.70;;;;;;;16.01;100.00;95589.16;5054348;28;20037;-77
2021/07/07 05:37:30;;;;;;;3.50;2.50;;;;;;;16.01;100.00;95578.56;5051507;28;20048;-77
2021/07/07 05:39:55;;;;;;;4.55;2.35;;;;;;;16.01;100.00;95589.16;5053163;28;20075;-77
2021/07/07 05:42:21;;;;;;;7.65;2.60;;;;;;;16.04;100.00;95588.56;5052904;28;20037;-77
2021/07/07 05:44:48;;;;;;;3.45;2.28;;;;;;;16.03;100.00;95592.31;5066792;28;20510;-76
2021/07/07 05:47:15;;;;;;;5.10;1.83;;;;;;;16.01;100.00;95599.78;5047135;28;20063;-77
2021/07/07 05:49:42;;;;;;;3.35;2.25;;;;;;;16.04;100.00;95598.41;5054022;28;20487;-77
2021/07/07 05:52:07;;;;;;;4.40;2.30;;;;;;;16.05;100.00;95587.50;5058531;28;20065;-76
2021/07/07 05:54:33;;;;;;;4.25;2.30;;;;;;;16.02;100.00;95596.06;5051897;28;20037;-77
2021/07/07 05:56:59;;;;;;;3.63;2.25;;;;;;;16.06;100.00;95601.53;5051413;28;20044;-78
2021/07/07 05:59:25;;;;;;;2.63;1.75;;;;;;;16.13;100.00;95595.81;5058415;28;20059;-78
2021/07/07 06:01:50;;;;;;;5.25;2.03;;;;;;;16.09;100.00;95606.22;5051398;28;20491;-78
2021/07/07 06:04:16;;;;;;;3.88;2.20;;;;;;;16.04;100.00;95604.50;5053497;28;20048;-78
2021/07/07 06:06:41;;;;;;;3.47;2.30;;;;;;;15.99;100.00;95596.66;5052660;28;20124;-78
2021/07/07 06:09:07;;;;;;;5.00;2.03;;;;;;;16.05;100.00;95600.75;5054980;28;20041;-78
2021/07/07 06:11:33;;;;;;;4.40;2.42;;;;;;;16.01;100.00;95605.09;5059062;28;20461;-78
2021/07/07 06:13:58;;;;;;;6.07;2.13;;;;;;;16.05;100.00;95611.38;5055146;28;20037;-77
2021/07/07 06:16:24;;;;;;;3.22;1.90;;;;;;;16.03;100.00;95613.56;5066547;28;20068;-77
2021/07/07 06:18:50;;;;;;;4.45;2.20;;;;;;;15.97;100.00;95609.44;5053564;28;20045;-78
2021/07/07 06:21:16;;;;;;;2.67;1.90;;;;;;;15.94;100.00;95618.00;5054964;28;20543;-78
2021/07/07 06:23:42;;;;;;;3.85;1.90;;;;;;;15.93;100.00;95624.38;5061935;28;20037;-78
2021/07/07 06:26:07;;;;;;;3.28;1.83;;;;;;;15.92;100.00;95622.84;5058992;28;20044;-78
2021/07/07 06:28:32;;;;;;;4.75;1.90;;;;;;;15.86;100.00;95608.91;5055844;28;20044;-78
2021/07/07 06:30:58;;;;;;;2.60;1.90;;;;;;;15.86;100.00;95613.41;5055314;28;20094;-78
2021/07/07 06:33:24;;;;;;;3.30;2.03;;;;;;;15.89;100.00;95618.13;5073637;28;20041;-78
2021/07/07 06:35:49;;;;;;;5.35;2.30;;;;;;;15.79;100.00;95613.84;5053864;28;20071;-78
2021/07/07 06:38:15;;;;;;;3.47;1.98;;;;;;;15.79;100.00;95613.03;5053635;28;20098;-78
2021/07/07 06:40:41;;;;;;;6.40;2.78;;;;;;;15.89;100.00;95603.00;5053408;28;20047;-78
2021/07/07 06:43:06;;;;;;;5.38;2.90;;;;;;;15.94;100.00;95618.00;5059974;28;20483;-77
2021/07/07 06:45:37;;;;;;;3.80;2.35;;;;;;;15.92;100.00;95612.22;5063801;28;20106;-77
2021/07/07 06:48:05;;;;;;;5.30;2.63;;;;;;;15.89;100.00;95602.22;5055554;28;20090;-77
2021/07/07 06:50:31;;;;;;;4.75;3.55;;;;;;;16.04;100.00;95599.19;5056825;28;20037;-78
2021/07/07 06:52:56;;;;;;;5.75;3.20;;;;;;;16.11;100.00;95610.16;5056638;28;20522;-78
2021/07/07 06:55:22;;;;;;;7.25;3.78;;;;;;;16.14;100.00;95613.31;5057491;28;20037;-78
2021/07/07 06:57:48;;;;;;;6.00;3.03;;;;;;;16.18;100.00;95619.59;5053114;28;20037;-78
2021/07/07 07:00:16;;;;;;;5.13;2.53;;;;;;;16.21;100.00;95619.00;5054634;28;20059;-78
2021/07/07 07:02:42;;;;;;;3.97;2.50;;;;;;;16.25;100.00;95615.41;5062619;28;20486;-77
2021/07/07 07:05:10;;;;;;;6.53;3.03;;;;;;;16.36;100.00;95610.63;5053990;28;20037;-78
2021/07/07 07:07:36;;;;;;;3.20;2.30;;;;;;;16.33;100.00;95619.22;5051496;28;20418;-78
2021/07/07 07:10:03;;;;;;;5.38;2.35;;;;;;;16.25;99.50;95625.25;5053046;28;20037;-78
2021/07/07 07:12:29;;;;;;;3.78;2.08;;;;;;;16.18;99.21;95630.22;5060251;28;20029;-78
2021/07/07 07:14:55;;;;;;;3.95;1.92;;;;;;;16.13;98.85;95635.63;5053558;28;20487;-78
2021/07/07 07:17:22;;;;;;;4.15;2.13;;;;;;;16.11;100.00;95636.72;5056338;28;20051;-78
2021/07/07 07:19:48;;;;;;;3.25;2.20;;;;;;;16.13;100.00;95635.63;5058652;28;20042;-78
2021/07/07 07:22:14;;;;;;;3.70;2.33;;;;;;;16.08;100.00;95642.63;5057024;28;20044;-79
2021/07/07 07:24:40;;;;;;;3.50;2.40;;;;;;;16.09;100.00;95633.59;5054099;28;20037;-79
2021/07/07 07:27:05;;;;;;;3.25;2.60;;;;;;;16.17;100.00;95633.94;5050189;28;20048;-78
2021/07/07 07:29:31;;;;;;;4.43;2.95;;;;;;;16.18;100.00;95635.53;5052720;28;20482;-78
2021/07/07 07:31:57;;;;;;;4.97;2.80;;;;;;;16.26;100.00;95642.75;5068810;28;20479;-83
2021/07/07 07:34:22;;;;;;;5.03;2.90;;;;;;;16.32;100.00;95641.56;5054530;28;20045;-84
2021/07/07 07:36:51;;;;;;;5.03;2.50;;;;;;;16.33;100.00;95651.06;5056227;28;20044;-83
2021/07/07 07:39:21;;;;;;;5.80;2.80;;;;;;;16.30;100.00;95653.56;5051629;28;20307;-82
2021/07/07 07:41:46;;;;;;;5.15;2.65;;;;;;;16.31;100.00;95661.22;5056308;28;20115;-83
2021/07/07 07:44:12;;;;;;;2.67;2.00;;;;;;;16.27;97.31;95654.94;5049904;28;20079;-83
2021/07/07 07:46:38;;;;;;;6.38;2.30;;;;;;;16.35;98.11;95654.22;5051563;28;20041;-83
2021/07/07 07:49:06;;;;;;;3.08;2.10;;;;;;;16.34;97.68;95650.00;5052848;28;20052;-82
2021/07/07 07:51:33;;;;;;;4.65;2.50;;;;;;;16.44;100.00;95651.63;5053911;28;20518;-80
2021/07/07 07:53:59;;;;;;;4.25;2.50;;;;;;;16.43;100.00;95652.69;5051364;28;20106;-83
2021/07/07 07:56:25;;;;;;;4.47;2.35;;;;;;;16.40;100.00;95654.09;5049605;28;20037;-82
2021/07/07 07:58:51;;;;;;;3.80;2.03;;;;;;;16.40;100.00;95659.41;5051637;28;20041;-83
2021/07/07 08:01:16;;;;;;;5.25;2.50;;;;;;;16.38;100.00;95666.91;5050097;28;20037;-81
2021/07/07 08:03:42;;;;;;;4.60;2.45;;;;;;;16.39;99.77;95665.81;5051507;28;20050;-83
2021/07/07 08:06:08;;;;;;;3.50;2.17;;;;;;;16.41;100.00;95671.59;5050266;28;20040;-83
2021/07/07 08:08:34;;;;;;;3.53;2.15;;;;;;;16.37;98.71;95665.31;5051409;28;20045;-83
2021/07/07 08:10:59;;;;;;;3.78;2.05;;;;;;;16.39;98.18;95663.16;5067133;28;20060;-84
2021/07/07 08:13:25;;;;;;;4.53;2.30;;;;;;;16.47;98.33;95674.16;5050769;28;20166;-80
2021/07/07 08:15:51;;;;;;;4.50;2.42;;;;;;;16.52;100.00;95679.31;5051764;28;20033;-83
2021/07/07 08:18:16;;;;;;;3.65;2.30;;;;;;;16.51;100.00;95685.75;5050729;28;20049;-86
2021/07/07 08:20:42;;;;;;;5.80;2.40;;;;;;;16.45;100.00;95693.81;5052029;28;20087;-80
2021/07/07 08:23:08;;;;;;;5.07;2.30;;;;;;;16.47;98.90;95700.72;5056583;28;20037;-83
2021/07/07 08:25:34;;;;;;;3.47;2.25;;;;;;;16.49;98.95;95698.53;5056505;28;20272;-83
2021/07/07 08:28:00;;;;;;;5.30;2.20;;;;;;;16.52;98.26;95689.94;5053881;28;20044;-82
2021/07/07 08:30:26;;;;;;;4.00;2.05;;;;;;;16.54;97.36;95690.44;5053380;28;20079;-82
2021/07/07 08:32:51;;;;;;;3.92;2.10;;;;;;;16.58;99.33;95681.56;5056210;28;20114;-82
2021/07/07 08:35:17;;;;;;;5.65;2.13;;;;;;;16.58;98.89;95680.78;5054052;28;20034;-83
2021/07/07 08:37:44;;;;;;;5.35;2.35;;;;;;;16.72;99.37;95681.50;5054587;28;20530;-82
2021/07/07 08:40:11;;;;;;;4.25;2.10;;;;;;;16.83;98.08;95681.22;5058547;28;20045;-79
2021/07/07 08:42:42;;;;;;;3.88;2.03;;;;;;;16.79;93.67;95681.84;5053653;28;20099;-84
2021/07/07 08:45:10;;;;;;;5.50;2.22;;;;;;;17.04;94.62;95698.25;5064235;28;20556;-81
2021/07/07 08:47:40;;;;;;;6.80;2.60;;;;;;;16.98;94.56;95710.09;5052778;28;20064;-83
2021/07/07 08:50:08;;;;;;;5.85;2.50;;;;;;;17.04;95.98;95713.41;5042070;28;20037;-78
2021/07/07 08:52:33;;;;;;;6.90;2.28;;;;;;;17.04;96.88;95708.88;5053642;28;20494;-85
2021/07/07 08:54:59;;;;;;;4.32;2.40;;;;;;;16.96;96.52;95712.28;5053909;28;20039;-83
2021/07/07 08:57:27;;;;;;;4.53;2.63;;;;;;;17.10;98.75;95718.28;5054091;28;20049;-83
2021/07/07 08:59:53;;;;;;;3.88;2.10;;;;;;;17.16;94.75;95715.50;5070070;28;20379;-83
2021/07/07 09:02:19;;;;;;;6.03;2.40;;;;;;;17.22;96.88;95724.91;5055928;28;20075;-82
2021/07/07 09:04:46;;;;;;;8.52;2.40;;;;;;;17.21;97.20;95707.38;5054550;28;20068;-83
2021/07/07 09:07:16;;;;;;;5.15;2.13;;;;;;;17.22;92.82;95724.91;5050397;28;20045;-83
2021/07/07 09:09:46;;;;;;;19.25;2.95;;;;;;;17.31;94.29;95723.06;5048178;28;20041;-83
2021/07/07 09:12:19;;;;;;;3.88;2.45;;;;;;;17.28;94.26;95724.47;5052870;28;20056;-83
2021/07/07 09:14:48;;;;;;;4.85;2.50;;;;;;;17.31;96.75;95717.75;5055672;28;20052;-84
2021/07/07 09:17:20;;;;;;;6.20;2.60;;;;;;;17.31;94.73;95739.03;5053366;28;20525;-83
2021/07/07 09:19:47;;;;;;;6.95;2.85;;;;;;;17.38;94.34;95736.72;5052469;28;20037;-83
2021/07/07 09:22:14;;;;;;;4.93;2.92;;;;;;;17.41;96.18;95738.78;5051576;28;20052;-82
2021/07/07 09:24:45;;;;;;;6.22;2.65;;;;;;;17.43;93.86;95739.25;5051253;28;20433;-83
2021/07/07 09:27:16;;;;;;;4.25;2.80;;;;;;;17.48;96.21;95748.94;5052854;28;20041;-83
2021/07/07 09:29:43;;;;;;;4.90;2.80;;;;;;;17.55;95.82;95753.84;5051231;28;20041;-83
2021/07/07 09:32:19;;;;;;;5.63;3.10;;;;;;;17.48;94.10;95738.31;5051976;28;20037;-82
2021/07/07 09:34:48;;;;;;;6.53;3.30;;;;;;;17.53;94.34;95734.72;5054874;28;20041;-83
2021/07/07 09:37:27;;;;;;;9.55;3.45;;;;;;;17.62;94.18;95743.53;5055556;28;20029;-83
2021/07/07 09:39:55;;;;;;;7.10;3.15;;;;;;;17.46;92.17;95751.91;5052358;28;20041;-84
2021/07/07 09:42:26;;;;;;;6.18;3.35;;;;;;;17.52;92.88;95751.78;5053231;28;20037;-83
2021/07/07 09:44:52;;;;;;;5.88;3.55;;;;;;;17.57;94.95;95754.31;5046338;28;20048;-83
2021/07/07 09:47:19;;;;;;;7.70;3.40;;;;;;;17.60;95.30;95756.38;5051853;28;20044;-82
2021/07/07 09:49:47;;;;;;;7.65;3.80;;;;;;;17.64;93.54;95757.31;5051920;28;20072;-83
2021/07/07 09:52:15;;;;;;;4.88;3.47;;;;;;;17.59;96.50;95765.44;5059923;28;20041;-83
2021/07/07 09:54:41;;;;;;;9.85;4.00;;;;;;;17.57;94.68;95762.28;5052478;28;20045;-82
2021/07/07 09:57:06;;;;;;;5.57;3.72;;;;;;;17.68;95.90;95758.25;5051722;28;20048;-84
2021/07/07 09:59:32;;;;;;;6.55;3.80;;;;;;;17.66;95.62;95765.78;5056497;28;20112;-83
2021/07/07 10:02:00;;;;;;;7.65;4.55;;;;;;;17.75;98.23;95774.56;5067439;28;20560;-83
2021/07/07 10:04:32;;;;;;;7.07;4.15;;;;;;;17.72;95.86;95775.19;5065281;28;20395;-84
2021/07/07 10:06:59;;;;;;;7.68;4.53;;;;;;;17.67;96.89;95772.69;5050190;28;20045;-83
2021/07/07 10:09:26;;;;;;;7.88;4.13;;;;;;;17.65;96.31;95769.53;5051139;28;20041;-85
2021/07/07 10:11:54;;;;;;;7.40;3.50;;;;;;;17.59;96.34;95762.78;5067273;28;20041;-85
2021/07/07 10:14:21;;;;;;;7.07;3.85;;;;;;;17.58;95.78;95763.88;5043737;28;20103;-84
2021/07/07 10:16:48;;;;;;;4.97;3.40;;;;;;;17.38;93.22;95765.97;5051199;28;20033;-84
2021/07/07 10:19:16;;;;;;;5.30;3.58;;;;;;;17.48;95.16;95755.06;5055833;28;20047;-82
2021/07/07 10:21:41;;;;;;;5.50;3.72;;;;;;;17.51;93.06;95758.19;5055099;28;20040;-82
2021/07/07 10:24:08;;;;;;;6.97;3.70;;;;;;;17.73;95.70;95760.78;5069336;28;20099;-82
2021/07/07 10:26:35;;;;;;;6.75;3.60;;;;;;;17.86;93.89;95763.63;5055445;28;20131;-83
2021/07/07 10:29:01;;;;;;;5.60;3.60;;;;;;;18.08;91.80;95760.88;5053344;28;20041;-82
2021/07/07 10:31:59;;;;;;;4.63;3.30;;;;;;;18.66;89.70;95755.41;5050194;28;20047;-78
2021/07/07 10:34:27;;;;;;;5.45;3.67;;;;;;;19.64;87.92;95768.22;5045860;28;20040;-79
2021/07/07 10:36:54;;;;;;;3.83;3.03;;;;;;;19.71;87.43;95752.47;5052259;28;20040;-79
2021/07/07 10:39:20;;;;;;;5.53;3.50;;;;;;;19.54;86.44;95759.47;5050427;28;20072;-80
2021/07/07 10:41:53;;;;;;;7.40;3.60;;;;;;;19.10;86.81;95761.50;5061512;28;20130;-82
2021/07/07 10:44:22;;;;;;;6.60;3.35;;;;;;;19.07;87.66;95767.47;5056623;28;20478;-81
2021/07/07 10:46:49;;;;;;;5.65;3.78;;;;;;;19.24;88.23;95766.66;5050850;28;20422;-79
2021/07/07 10:49:25;;;;;;;8.07;3.22;;;;;;;18.99;83.52;95765.59;5048900;28;20148;-86
2021/07/07 10:51:58;;;;;;;5.70;3.05;;;;;;;19.13;84.23;95766.19;5051046;28;20048;-83
2021/07/07 10:54:26;;;;;;;4.60;3.70;;;;;;;19.33;84.78;95774.63;5051787;28;20075;-83
2021/07/07 10:56:53;;;;;;;6.50;3.28;;;;;;;19.29;82.27;95779.03;5051827;28;20286;-84
2021/07/07 10:59:33;;;;;;;4.75;3.15;;;;;;;19.53;83.47;95773.91;5055503;28;20052;-84
2021/07/07 11:02:07;;;;;;;5.07;3.00;;;;;;;19.45;84.78;95777.44;5050325;28;20384;-84
2021/07/07 11:04:37;;;;;;;8.18;3.00;;;;;;;19.23;86.30;95770.41;5046235;28;20037;-84
2021/07/07 11:07:30;;;;;;;4.50;2.42;;;;;;;19.01;82.33;95763.41;5050539;28;20495;-84
2021/07/07 11:10:06;;;;;;;3.88;2.80;;;;;;;19.08;85.82;95757.56;5065051;28;20037;-85
2021/07/07 11:12:35;;;;;;;4.35;3.15;;;;;;;19.08;85.33;95763.72;5050153;28;20037;-85
2021/07/07 11:15:06;;;;;;;5.68;2.67;;;;;;;19.15;82.72;95758.69;5066220;28;20037;-85
2021/07/07 11:17:52;;;;;;;5.40;2.00;;;;;;;19.11;81.47;95764.97;5050400;28;20041;-83
2021/07/07 11:20:19;;;;;;;3.40;2.20;;;;;;;19.15;80.72;95757.88;5055404;28;20033;-84
2021/07/07 11:22:48;;;;;;;3.55;1.90;;;;;;;19.11;80.41;95757.75;5048856;28;20068;-85
2021/07/07 11:25:16;;;;;;;3.03;2.13;;;;;;;18.97;80.85;95757.16;5049670;28;20037;-84